createdAt,value
2024-01-11T04:39:39.179Z,101644.84
2024-01-11T04:42:42.370Z,101644.84
2024-01-11T04:45:45.090Z,101642.44
2024-01-11T04:48:50.111Z,101633.75
2024-01-11T04:51:52.708Z,101644.31
2024-01-11T04:54:55.767Z,101641.59
2024-01-11T04:57:58.561Z,101633.31
2024-01-11T05:01:01.687Z,101642.16
2024-01-11T05:04:04.594Z,101645.31
2024-01-11T05:07:07.418Z,101636.69
2024-01-11T05:10:12.657Z,101635.00
2024-01-11T05:13:15.556Z,101635.00
2024-01-11T05:16:28.893Z,101639.47
2024-01-11T05:19:31.754Z,101631.91
2024-01-11T05:22:34.666Z,101634.56
2024-01-11T05:25:37.901Z,101632.31
2024-01-11T05:28:43.227Z,101635.09
2024-01-11T05:31:46.888Z,101634.97
2024-01-11T05:34:49.468Z,101636.25
2024-01-11T05:37:52.123Z,101640.91
2024-01-11T05:40:55.100Z,101626.87
2024-01-11T05:43:58.252Z,101643.66
2024-01-11T05:47:00.769Z,101637.63
2024-01-11T05:50:04.050Z,101633.41
2024-01-11T05:53:07.083Z,101637.72
2024-01-11T05:56:10.951Z,101630.84
2024-01-11T05:59:13.734Z,101629.69
2024-01-11T06:02:16.563Z,101638.84
2024-01-11T06:05:19.406Z,101634.75
2024-01-11T06:08:25.362Z,101637.44
2024-01-11T06:11:29.351Z,101635.03
2024-01-11T06:14:31.935Z,101628.97
2024-01-11T06:17:35.247Z,101630.72
2024-01-11T06:20:37.899Z,101626.06
2024-01-11T06:23:40.686Z,101612.25
2024-01-11T06:26:43.485Z,101618.31
2024-01-11T06:29:47.017Z,101619.87
2024-01-11T06:32:49.761Z,101619.16
2024-01-11T06:35:53.014Z,101621.34
2024-01-11T06:38:55.819Z,101619.47
2024-01-11T06:41:58.798Z,101624.22
2024-01-11T06:45:02.325Z,101614.25
2024-01-11T06:48:05.798Z,101613.13
2024-01-11T06:51:09.226Z,101614.81
2024-01-11T06:54:12.285Z,101607.88
2024-01-11T06:57:15.949Z,101613.37
2024-01-11T07:00:19.179Z,101608.56
2024-01-11T07:03:22.073Z,101607.81
2024-01-11T07:06:25.318Z,101610.22
2024-01-11T07:09:28.025Z,101609.47
2024-01-11T07:12:30.833Z,101604.50
2024-01-11T07:15:33.557Z,101601.75
2024-01-11T07:18:36.637Z,101607.69
2024-01-11T07:21:39.127Z,101602.78
2024-01-11T07:24:42.272Z,101599.63
2024-01-11T07:27:44.919Z,101599.31
2024-01-11T07:30:48.005Z,101593.37
2024-01-11T07:36:54.225Z,101608.66
2024-01-11T07:39:56.744Z,101606.59
2024-01-11T07:43:00.460Z,101606.44
2024-01-11T07:46:04.629Z,101599.84
2024-01-11T07:49:07.928Z,101586.59
2024-01-11T07:52:10.926Z,101595.81
2024-01-11T07:55:14.335Z,101592.94
2024-01-11T07:58:17.102Z,101586.41
2024-01-11T08:01:20.800Z,101589.66
2024-01-11T08:04:23.595Z,101584.16
2024-01-11T08:07:27.386Z,101577.19
2024-01-11T08:10:34.024Z,101574.91
2024-01-11T08:13:38.982Z,101576.00
2024-01-11T08:16:41.853Z,101567.59
2024-01-11T08:19:44.702Z,101564.47
2024-01-11T08:22:48.244Z,101555.47
2024-01-11T08:25:50.729Z,101560.03
2024-01-11T08:28:54.771Z,101548.22
2024-01-11T08:31:57.623Z,101547.44
2024-01-11T08:35:00.714Z,101549.78
2024-01-11T08:38:04.315Z,101548.47
2024-01-11T08:41:07.843Z,101543.88
2024-01-11T08:44:10.577Z,101534.91
2024-01-11T08:47:13.675Z,101543.59
2024-01-11T08:50:18.417Z,101528.75
2024-01-11T08:53:22.796Z,101533.94
2024-01-11T08:56:26.587Z,101525.53
2024-01-11T08:59:29.995Z,101531.75
2024-01-11T09:02:32.911Z,101536.19
2024-01-11T09:05:35.923Z,101538.66
2024-01-11T09:08:38.423Z,101537.97
2024-01-11T09:11:41.681Z,101529.16
2024-01-11T09:14:44.806Z,101522.16
2024-01-11T09:17:47.931Z,101516.91
2024-01-11T09:20:50.995Z,101511.84
2024-01-11T09:23:53.822Z,101516.03
2024-01-11T09:26:56.839Z,101513.38
2024-01-11T09:29:59.846Z,101515.28
2024-01-11T09:33:02.678Z,101509.91
2024-01-11T09:36:06.070Z,101492.94
2024-01-11T09:39:09.500Z,101494.72
2024-01-11T09:42:13.151Z,101477.44
2024-01-11T09:45:17.978Z,101458.81
2024-01-11T09:48:22.602Z,101436.63
2024-01-11T09:51:27.005Z,101438.03
2024-01-11T09:54:29.760Z,101433.06
2024-01-11T09:57:36.021Z,101428.84
2024-01-11T10:00:39.798Z,101419.56
2024-01-11T10:03:47.454Z,101406.59
2024-01-11T10:06:52.295Z,101401.66
2024-01-11T10:09:55.858Z,101399.19
2024-01-11T10:12:58.627Z,101390.59
2024-01-11T10:16:11.077Z,101396.69
2024-01-11T10:19:16.981Z,101385.50
2024-01-11T10:22:23.039Z,101376.78
2024-01-11T10:25:28.235Z,101364.88
2024-01-11T10:28:31.295Z,101357.12
2024-01-11T10:31:35.957Z,101365.72
2024-01-11T10:34:41.152Z,101356.38
2024-01-11T10:37:47.730Z,101361.50
2024-01-11T10:40:53.714Z,101358.94
2024-01-11T10:43:59.082Z,101367.56
2024-01-11T10:47:06.329Z,101354.66
2024-01-11T10:50:11.612Z,101343.41
2024-01-11T10:53:52.009Z,101347.72
2024-01-11T10:56:56.631Z,101348.63
2024-01-11T11:00:04.746Z,101345.22
2024-01-11T11:03:08.408Z,101332.25
2024-01-11T11:06:12.941Z,101325.41
2024-01-11T11:09:17.213Z,101306.47
2024-01-11T11:12:21.824Z,101303.09
2024-01-11T11:15:25.414Z,101305.69
2024-01-11T11:18:28.519Z,101301.41
2024-01-11T11:21:32.094Z,101297.91
2024-01-11T11:24:35.252Z,101298.78
2024-01-11T11:27:38.293Z,101310.03
2024-01-11T11:30:43.451Z,101304.87
2024-01-11T11:33:46.131Z,101298.00
2024-01-11T11:36:51.304Z,101286.75
2024-01-11T11:39:53.699Z,101278.19
2024-01-11T11:42:57.574Z,101274.72
2024-01-11T11:46:08.601Z,101260.09
2024-01-11T11:49:13.191Z,101258.34
2024-01-11T11:52:17.823Z,101262.69
2024-01-11T11:55:23.146Z,101269.59
2024-01-11T11:58:25.741Z,101274.75
2024-01-11T12:01:29.379Z,101265.28
2024-01-11T12:04:32.098Z,101248.91
2024-01-11T12:07:34.842Z,101235.97
2024-01-11T12:10:37.550Z,101242.00
2024-01-11T12:13:41.328Z,101239.41
2024-01-11T12:16:44.309Z,101231.66
2024-01-11T12:19:47.149Z,101230.81
2024-01-11T12:22:50.146Z,101222.19
2024-01-11T12:25:53.192Z,101229.06
2024-01-11T12:28:56.313Z,101219.56
2024-01-11T12:32:02.125Z,101223.03
2024-01-11T12:35:06.307Z,101209.25
2024-01-11T12:38:10.472Z,101215.28
2024-01-11T12:41:14.036Z,101207.47
2024-01-11T12:44:18.568Z,101212.66
2024-01-11T12:47:24.645Z,101205.66
2024-01-11T12:50:33.993Z,101215.16
2024-01-11T12:53:37.124Z,101217.69
2024-01-11T12:56:46.026Z,101209.03
2024-01-11T12:59:49.595Z,101210.72
2024-01-11T13:02:55.079Z,101198.56
2024-01-11T13:05:58.448Z,101203.09
2024-01-11T13:09:02.335Z,101191.06
2024-01-11T13:12:05.868Z,101185.87
2024-01-11T13:15:08.711Z,101181.56
2024-01-11T13:18:11.634Z,101167.78
2024-01-11T13:21:14.756Z,101158.25
2024-01-11T13:24:17.766Z,101150.47
2024-01-11T13:27:20.487Z,101156.50
2024-01-11T13:30:23.191Z,101150.47
2024-01-11T13:33:25.922Z,101142.75
2024-01-11T13:36:29.013Z,101134.91
2024-01-11T13:39:31.552Z,101149.50
2024-01-11T13:42:34.268Z,101137.44
2024-01-11T13:45:37.868Z,101145.28
2024-01-11T13:48:41.188Z,101133.28
2024-01-11T13:51:53.351Z,101133.09
2024-01-11T13:55:01.486Z,101121.94
2024-01-11T13:58:04.864Z,101105.56
2024-01-11T14:01:08.805Z,101104.87
2024-01-11T14:04:11.837Z,101103.22
2024-01-11T14:07:17.115Z,101105.00
2024-01-11T14:10:20.267Z,101094.66
2024-01-11T14:13:23.012Z,101089.47
2024-01-11T14:16:28.090Z,101084.34
2024-01-11T14:19:30.812Z,101069.69
2024-01-11T14:22:33.883Z,101059.38
2024-01-11T14:25:36.649Z,101051.59
2024-01-11T14:28:43.684Z,101046.44
2024-01-11T14:31:46.811Z,101040.44
2024-01-11T14:34:50.451Z,101044.75
2024-01-11T14:37:54.366Z,101035.25
2024-01-11T14:40:57.832Z,101029.22
2024-01-11T14:44:01.267Z,101043.00
2024-01-11T14:47:04.993Z,101049.06
2024-01-11T14:50:11.266Z,101044.75
2024-01-11T14:53:15.226Z,101055.94
2024-01-11T14:56:18.171Z,101034.41
2024-01-11T14:59:21.640Z,101050.78
2024-01-11T15:02:24.106Z,101049.91
2024-01-11T15:05:27.220Z,101041.31
2024-01-11T15:08:30.716Z,101048.19
2024-01-11T15:11:37.170Z,101039.56
2024-01-11T15:14:42.044Z,101028.38
2024-01-11T15:17:45.887Z,101025.81
2024-01-11T15:20:48.804Z,101025.81
2024-01-11T15:23:51.687Z,101030.13
2024-01-11T15:26:54.897Z,101044.75
2024-01-11T15:29:58.156Z,101043.03
2024-01-11T15:33:02.300Z,101037.03
2024-01-11T15:36:06.306Z,101036.16
2024-01-11T15:39:20.436Z,101040.47
2024-01-11T15:42:29.635Z,101032.69
2024-01-11T15:45:34.443Z,101024.94
2024-01-11T15:48:37.773Z,100999.16
2024-01-11T15:51:40.322Z,100989.69
2024-01-11T15:54:43.013Z,101013.75
2024-01-11T15:57:45.431Z,101026.69
2024-01-11T16:00:48.771Z,101022.38
2024-01-11T16:03:53.330Z,101022.34
2024-01-11T16:06:56.332Z,101012.87
2024-01-11T16:09:59.661Z,101034.41
2024-01-11T16:13:03.232Z,101031.84
2024-01-11T16:16:06.229Z,101016.34
2024-01-11T16:19:08.772Z,101009.47
2024-01-11T16:22:11.781Z,101017.19
2024-01-11T16:25:14.658Z,101007.75
2024-01-11T16:28:17.386Z,100988.81
2024-01-11T16:31:20.622Z,100995.66
2024-01-11T16:34:23.450Z,100999.94
2024-01-11T16:37:25.958Z,100992.22
2024-01-11T16:40:29.524Z,100984.50
2024-01-11T16:43:52.797Z,100987.06
2024-01-11T16:46:55.647Z,100981.03
